Terminal Aerodrome Forecast
Issued by NWS

Home | Current Version | Previous Version | Text Only | Print | Product List | Glossary On
Versions: 1 2 3 4 5 6 7 8 9 10 11 12 13 14 15 16 17 18 19 20
000
FTUS42 KGSP 282339
TAFGMU
TAF
KGMU 282339Z 0100/0124 05006KT P6SM BKN120
     FM010400 05007KT P6SM OVC030
     FM010800 04006KT P6SM -FZRA OVC008
     FM011300 04005KT 6SM -RA BR BKN003 OVC007
     FM011900 00000KT P6SM OVC008=

USA.gov is the U.S. government's official web portal to all federal, state and local government web resources and services.